McCammon, Idaho
Current Conditions -  °F | °C
As of 8:53 AM on Wednesday 26 Nov 2014 (Local Time) from KPIH Reporting Station
Scattered Clouds Scattered Clouds  
Wind Chill: 37°   Ceiling: Unl
Heat Index: 45°   Visibility: 10mi
Dew Point: 37°   Wind: 22mph
Humidity: 74%   Direction: 220°SW
Pressure: 30.31"   Gusts: NA
Location:  42.65°N, 112.19°W
Report Text: KPIH 261553Z 22019KT 10SM FEW025 SCT100 07/03 A3031 RMK AO2 PK WND 22031/1504 SLP259 T00720028
Loading
Personal Weather Stations






























Interactive Weather Map New forecast layout! Learn more

10-Day Weather Forecast

Advertisements
Track Severe Weather on mobile